PDT,Max TemperatureF,Mean TemperatureF,Min TemperatureF,Max Dew PointF,MeanDew PointF,Min DewpointF,Max Humidity, Mean Humidity, Min Humidity, Max Sea Level PressureIn, Mean Sea Level PressureIn, Min Sea Level PressureIn, Max VisibilityMiles, Mean VisibilityMiles, Min VisibilityMiles, Max Wind SpeedMPH, Mean Wind SpeedMPH, Max Gust SpeedMPH,PrecipitationIn, CloudCover, Events, WindDirDegrees
2013-5-1,90,66,42,37,28,13,76,41,6,30.12,30.00,29.93,10,10,10,14,2,18,0.00,0,,227
2013-5-2,92,68,44,38,32,14,76,41,6,30.19,30.13,30.08,10,10,9,14,1,20,0.00,0,,337
2013-5-3,95,70,45,46,38,32,76,44,12,30.10,29.94,29.81,10,10,10,15,1,20,0.00,0,,90
2013-5-4,93,69,45,45,38,21,80,44,8,29.82,29.64,29.49,10,10,10,24,1,32,0.00,0,,134
2013-5-5,64,59,53,47,46,45,77,66,55,29.83,29.68,29.57,10,10,10,21,12,29,T,4,,155
2013-5-6,66,59,52,55,50,47,83,72,60,29.97,29.88,29.83,10,10,10,9,3,13,0.02,7,Rain,336
2013-5-7,73,62,51,50,49,47,96,70,44,30.04,29.99,29.96,10,10,10,12,3,18,0.00,7,,302
2013-5-8,75,63,50,53,49,44,89,68,46,30.11,30.06,30.03,10,10,10,12,3,16,0.00,3,,60
2013-5-9,83,67,50,53,49,46,83,58,33,30.15,30.10,30.04,10,10,10,13,2,22,0.00,0,,12
2013-5-10,91,71,50,56,50,46,83,55,27,30.16,30.12,30.06,10,10,10,12,2,17,0.00,0,,12
2013-5-11,94,73,52,56,51,46,83,55,26,30.13,30.07,30.01,10,10,10,12,3,16,0.00,0,,109
2013-5-12,87,69,50,54,47,35,86,58,30,30.14,30.08,30.02,10,10,10,15,3,18,0.00,0,,344
2013-5-13,85,68,50,51,47,43,77,54,31,30.07,30.03,29.98,10,10,10,15,5,21,0.00,0,,343
2013-5-14,85,70,54,48,44,35,77,50,23,30.01,29.96,29.92,10,10,10,17,6,25,0.00,0,,349
2013-5-15,77,64,50,47,42,37,68,48,27,30.05,30.02,29.99,10,10,10,18,7,24,0.00,0,,343
2013-5-16,70,63,55,49,46,41,72,56,40,30.03,29.99,29.94,10,10,10,17,7,22,0.00,3,,341
2013-5-17,73,59,44,44,42,33,86,56,26,30.09,30.01,29.99,10,10,10,15,4,22,0.00,0,,349
2013-5-18,77,61,45,47,43,38,86,58,29,30.17,30.12,30.09,10,10,10,18,5,28,0.00,0,,337
2013-5-19,84,65,46,47,43,35,86,52,18,30.19,30.10,30.00,10,10,10,14,3,18,0.00,0,,351
2013-5-20,91,69,46,47,41,29,93,55,16,30.06,29.99,29.90,10,10,10,18,2,23,0.00,0,,321
2013-5-21,67,61,54,44,38,28,66,48,30,30.09,30.00,29.92,10,10,10,22,13,31,0.00,0,,313
2013-5-22,64,54,44,38,33,27,58,43,28,30.09,30.01,29.95,10,10,10,22,12,30,0.00,0,,328
2013-5-23,70,57,44,40,37,33,76,52,28,30.04,29.99,29.95,10,10,10,20,6,25,0.00,0,,348
2013-5-24,72,57,42,41,39,37,83,56,29,30.04,29.99,29.95,10,10,10,14,5,20,0.00,0,,343
2013-5-25,75,60,44,46,41,34,83,53,23,30.06,30.00,29.97,10,10,10,16,5,23,0.00,0,,352
2013-5-26,73,62,51,49,44,39,83,57,31,30.14,30.07,30.04,10,10,10,18,8,25,0.00,3,,323
2013-5-27,62,56,49,57,52,43,86,79,71,30.13,30.05,29.97,10,8,2,8,2,10,0.04,7,Rain,140
2013-5-28,75,66,56,54,52,45,93,69,44,30.00,29.97,29.91,10,10,7,13,2,18,T,6,Rain,347
2013-5-29,74,64,53,52,47,44,89,64,38,30.00,29.95,29.91,10,10,10,16,6,24,T,4,Rain,342
2013-5-30,78,62,45,45,43,38,86,55,23,30.04,30.00,29.97,10,10,10,16,5,24,0.00,0,,354
2013-5-31,87,66,45,46,44,42,80,51,22,30.08,30.02,29.95,10,10,10,14,3,18,0.00,0,,343